20:50
Airports
History
Links
Donate
Help keep this website running!
PayPal
Bitcoin
This page is community maintained. The information is intended for PC simulator navigation or reference.
Always use approved charts for navigation.
3X1
Antiquers Aerodrome
Antiquers Aerodrome (3X1)
Villages of Oriole, Florida, United States (33446)
4
Lat/Lng:26° 27' 55.26" N / 80° 8' 59.16" W
26.465351 / -80.149767
Elevation:23'ft / 7mMSL
ID / ICAO:3X1
Runways:1
Longest:09-27
Grass 1,062m / 3,485ft
Nearby Weather19:53 GMT 2017-09-19
Nearby weather at KPMP, Pompano Beach Airpark located 15.3 nautical miles from 3X1
Altimeter: 29.90
Visibility: 10.0 statute miles
Wind: 9 knots (from 070°)
Temp: 30°c / 86°f
Humidity: 66.2%

METAR: KPMP 191953Z 07009KT 10SM SCT035 30/23 A2990 RMK AO2 SLP126 T03000233

(Powered by phpweather)
Nearby VORs <50NM
Nearby NDBs
Runway 09 / 27
Dimensions:1062.2 x 30.5m 3485' x 100'ft
Surface:Grass
Edge Lights:Low intensity
Runway 09 [A]Runway 27 [B]
Heading:087°TH 267°TH
Lat:
Lng:
26° 27' 54.36"N
80° 9' 18.44"W
26° 27' 56.17"N
80° 8' 39.88"W
User Notes and Comments
26° 27' 55.26" N / 80° 8' 59.16" W
Distance To
Airport ID:
Nearby Airports
(R) Antiquers Aerodrome 0.0 NM
FD08 N
(C) Boca Raton 6.5 NM
KBCT SSE 156°
(R) Willis 7.0 NM
FA44 NW 324°
(U) Palm Beach County Park 9.7 NM
KLNA NNE 24°
4 Beaty Farms Inc 12.5 NM
FA00 SW 215°
(R) Loxahatchee 14.5 NM
7FD6 NW 318°
(C) Pompano Beach Airpark 15.3 NM
KPMP ( WX ) S 170°
VFR Chart
Flight Planning at SkyVector.com